createdAt,value
2022-10-31T00:01:38.836Z,34.38
2022-10-31T00:04:08.968Z,27.17
2022-10-31T00:06:37.497Z,33.08
2022-10-31T00:09:07.469Z,35.38
2022-10-31T00:11:35.832Z,29.50
2022-10-31T00:14:04.639Z,36.50
2022-10-31T00:16:33.042Z,39.78
2022-10-31T00:19:04.171Z,35.00
2022-10-31T00:21:34.527Z,37.85
2022-10-31T00:24:03.451Z,35.67
2022-10-31T00:26:33.005Z,28.90
2022-10-31T00:29:02.571Z,34.92
2022-10-31T00:31:31.420Z,32.95
2022-10-31T00:34:00.586Z,30.38
2022-10-31T00:36:29.121Z,31.35
2022-10-31T00:39:01.209Z,34.33
2022-10-31T00:41:30.166Z,34.67
2022-10-31T00:43:58.740Z,31.35
2022-10-31T00:46:27.351Z,32.15
2022-10-31T00:48:55.802Z,29.45
2022-10-31T00:51:24.131Z,29.63
2022-10-31T00:53:52.688Z,61.55
2022-10-31T00:56:22.459Z,40.95
2022-10-31T00:58:50.777Z,32.58
2022-10-31T01:01:19.154Z,31.10
2022-10-31T01:03:47.486Z,37.45
2022-10-31T01:06:16.999Z,33.63
2022-10-31T01:08:45.625Z,30.77
2022-10-31T01:11:17.626Z,40.03
2022-10-31T01:13:48.843Z,31.40
2022-10-31T01:16:19.370Z,30.23
2022-10-31T01:18:48.769Z,30.58
2022-10-31T01:21:21.416Z,31.55
2022-10-31T01:23:51.319Z,35.05
2022-10-31T01:26:24.874Z,34.10
2022-10-31T01:28:58.203Z,42.78
2022-10-31T01:31:30.707Z,39.35
2022-10-31T01:34:00.379Z,32.97
2022-10-31T01:36:31.898Z,43.10
2022-10-31T01:39:04.821Z,32.95
2022-10-31T01:41:37.923Z,35.40
2022-10-31T01:44:58.858Z,38.63
2022-10-31T01:47:42.091Z,36.00
2022-10-31T01:50:30.256Z,38.88
2022-10-31T01:53:00.032Z,39.15
2022-10-31T01:55:34.028Z,36.20
2022-10-31T01:58:09.657Z,42.13
2022-10-31T02:00:42.416Z,42.67
2022-10-31T02:03:11.164Z,34.75
2022-10-31T02:05:40.649Z,33.47
2022-10-31T02:08:15.648Z,35.88
2022-10-31T02:10:45.968Z,34.78
2022-10-31T02:13:15.360Z,39.00
2022-10-31T02:15:49.223Z,52.15
2022-10-31T02:18:18.192Z,33.78
2022-10-31T02:21:00.995Z,33.53
2022-10-31T02:24:24.716Z,32.30
2022-10-31T02:27:11.743Z,30.60
2022-10-31T02:30:11.971Z,53.63
2022-10-31T02:33:07.454Z,36.17
2022-10-31T02:35:50.268Z,46.35
2022-10-31T02:38:40.879Z,32.72
2022-10-31T02:41:20.938Z,34.15
2022-10-31T02:44:04.341Z,35.47
2022-10-31T02:46:42.118Z,43.47
2022-10-31T02:49:24.309Z,40.20
2022-10-31T02:51:53.468Z,38.15
2022-10-31T02:54:26.542Z,47.13
2022-10-31T02:57:02.245Z,35.80
2022-10-31T02:59:36.628Z,38.25
2022-10-31T03:02:48.342Z,38.20
2022-10-31T03:05:53.748Z,40.95
2022-10-31T03:08:32.169Z,34.78
2022-10-31T03:11:03.770Z,37.28
2022-10-31T03:13:42.049Z,36.25
2022-10-31T03:16:18.290Z,31.00
2022-10-31T03:18:55.048Z,25.92
2022-10-31T03:21:32.601Z,45.50
2022-10-31T03:24:04.121Z,33.50
2022-10-31T03:26:34.006Z,35.95
2022-10-31T03:29:09.780Z,32.28
2022-10-31T03:31:47.707Z,38.20
2022-10-31T03:34:21.095Z,38.70
2022-10-31T03:36:55.985Z,35.53
2022-10-31T03:39:26.405Z,40.50
2022-10-31T03:42:02.201Z,37.20
2022-10-31T03:44:35.071Z,38.90
2022-10-31T03:47:05.029Z,44.75
2022-10-31T03:49:35.381Z,41.55
2022-10-31T03:52:16.175Z,34.78
2022-10-31T03:54:47.617Z,31.48
2022-10-31T03:57:26.650Z,27.98
2022-10-31T04:00:02.294Z,33.13
2022-10-31T04:02:36.839Z,27.95
2022-10-31T04:05:07.971Z,31.73
2022-10-31T04:07:44.051Z,40.35
2022-10-31T04:10:17.973Z,35.38
2022-10-31T04:12:54.500Z,37.47
2022-10-31T04:15:25.807Z,35.25
2022-10-31T04:18:00.165Z,34.85
2022-10-31T04:20:33.830Z,32.58
2022-10-31T04:23:07.210Z,34.15
2022-10-31T04:25:36.989Z,38.90
2022-10-31T04:28:05.625Z,37.10
2022-10-31T04:30:34.009Z,50.63
2022-10-31T04:33:02.613Z,45.97
2022-10-31T04:35:31.201Z,42.97
2022-10-31T04:37:59.539Z,40.50
2022-10-31T04:40:29.258Z,34.63
2022-10-31T04:42:57.636Z,31.33
2022-10-31T04:45:26.114Z,51.42
2022-10-31T04:47:54.452Z,35.30
2022-10-31T04:50:22.752Z,49.13
2022-10-31T04:52:51.048Z,46.70
2022-10-31T04:55:19.519Z,42.00
2022-10-31T04:57:51.487Z,44.38
2022-10-31T05:00:22.927Z,43.17
2022-10-31T05:02:53.176Z,51.55
2022-10-31T05:05:25.152Z,43.30
2022-10-31T05:07:54.691Z,43.20
2022-10-31T05:10:27.114Z,35.78
2022-10-31T05:13:00.062Z,40.67
2022-10-31T05:15:30.287Z,36.65
2022-10-31T05:17:59.517Z,40.42
2022-10-31T05:20:31.733Z,52.20
2022-10-31T05:23:01.137Z,43.15
2022-10-31T05:25:31.213Z,43.60
2022-10-31T05:28:01.130Z,35.75
2022-10-31T05:30:33.077Z,41.40
2022-10-31T05:33:02.656Z,39.03
2022-10-31T05:35:34.485Z,42.60
2022-10-31T05:38:03.121Z,41.65
2022-10-31T05:40:31.679Z,37.45
2022-10-31T05:43:01.793Z,36.25
2022-10-31T05:45:30.525Z,38.55
2022-10-31T05:48:01.306Z,34.47
2022-10-31T05:50:32.664Z,36.58
2022-10-31T05:53:03.273Z,38.22
2022-10-31T05:55:33.213Z,39.85
2022-10-31T05:58:03.151Z,43.10
2022-10-31T06:00:32.135Z,49.63
2022-10-31T06:03:01.274Z,45.72
2022-10-31T06:05:29.909Z,51.38
2022-10-31T06:07:59.086Z,55.42
2022-10-31T06:10:29.005Z,46.70
2022-10-31T06:12:57.238Z,42.67
2022-10-31T06:15:27.404Z,45.90
2022-10-31T06:18:04.735Z,47.20
2022-10-31T06:20:33.989Z,52.83
2022-10-31T06:23:03.158Z,51.40
2022-10-31T06:25:32.047Z,63.33
2022-10-31T06:28:00.561Z,58.45
2022-10-31T06:30:30.273Z,39.08
2022-10-31T06:33:05.285Z,52.47
2022-10-31T06:35:34.184Z,64.82
2022-10-31T06:38:03.154Z,48.45
2022-10-31T06:40:31.641Z,41.45
2022-10-31T06:43:01.126Z,51.20
2022-10-31T06:45:31.478Z,57.28
2022-10-31T06:50:48.455Z,53.00
2022-10-31T06:53:16.995Z,50.47
2022-10-31T06:55:45.941Z,47.03
2022-10-31T06:58:14.485Z,57.05
2022-10-31T07:00:44.307Z,49.15
2022-10-31T07:03:14.972Z,61.60
2022-10-31T07:05:43.617Z,49.67
2022-10-31T07:08:14.492Z,59.03
2022-10-31T07:10:45.034Z,55.90
2022-10-31T07:13:15.889Z,53.05
2022-10-31T07:15:46.731Z,52.35
2022-10-31T07:18:15.418Z,49.95
2022-10-31T07:20:44.026Z,48.90
2022-10-31T07:23:13.433Z,40.88
2022-10-31T07:25:42.599Z,46.08
2022-10-31T07:28:11.364Z,44.70
2022-10-31T07:30:40.605Z,44.42
2022-10-31T07:33:11.503Z,37.13
2022-10-31T07:35:39.966Z,39.95
2022-10-31T07:38:13.449Z,41.60
2022-10-31T07:40:42.275Z,61.85
2022-10-31T07:43:14.514Z,43.50
2022-10-31T07:45:43.432Z,37.15
2022-10-31T07:48:13.254Z,35.30
2022-10-31T07:50:41.584Z,38.22
2022-10-31T07:53:13.722Z,32.72
2022-10-31T07:55:43.205Z,32.88
2022-10-31T07:58:14.107Z,33.22
2022-10-31T08:00:45.045Z,30.48
2022-10-31T08:03:18.964Z,23.42
2022-10-31T08:05:48.413Z,18.60
2022-10-31T08:08:17.675Z,23.13
2022-10-31T08:10:46.267Z,23.73
2022-10-31T08:13:16.835Z,19.95
2022-10-31T08:15:45.612Z,18.67
2022-10-31T08:18:17.292Z,19.55
2022-10-31T08:20:46.420Z,24.67
2022-10-31T08:23:17.142Z,17.02
2022-10-31T08:25:47.956Z,19.05
2022-10-31T08:28:17.257Z,15.15
2022-10-31T08:30:46.921Z,14.48
2022-10-31T08:33:19.798Z,11.82
2022-10-31T08:35:48.711Z,8.50
2022-10-31T08:38:17.270Z,14.18
2022-10-31T08:40:45.686Z,13.73
2022-10-31T08:43:16.632Z,10.00
2022-10-31T08:45:46.437Z,10.52
2022-10-31T08:48:19.508Z,9.73
2022-10-31T08:50:48.731Z,9.30
2022-10-31T08:53:20.481Z,8.05
2022-10-31T08:55:49.895Z,13.55
2022-10-31T08:58:20.718Z,12.30
2022-10-31T09:00:51.973Z,8.70
2022-10-31T09:03:25.251Z,10.02
2022-10-31T09:06:18.012Z,8.27
2022-10-31T09:20:16.235Z,6.35
2022-10-31T09:31:42.209Z,7.35
2022-10-31T09:41:58.161Z,10.40
2022-10-31T09:45:08.593Z,9.35
2022-10-31T09:48:09.699Z,7.28
2022-10-31T09:50:48.894Z,9.20
2022-10-31T09:56:40.636Z,6.93
2022-10-31T09:59:28.199Z,6.60
2022-10-31T10:02:05.482Z,13.73
2022-10-31T10:04:44.801Z,9.40
2022-10-31T10:07:25.459Z,10.70
2022-10-31T10:09:55.693Z,11.35
2022-10-31T10:12:46.566Z,13.18
2022-10-31T10:15:41.976Z,7.20
2022-10-31T10:18:28.337Z,11.52
2022-10-31T10:21:22.135Z,13.15
2022-10-31T10:24:07.659Z,12.20
2022-10-31T10:26:53.307Z,8.90
2022-10-31T10:29:40.014Z,6.47
2022-10-31T10:32:24.670Z,5.63
2022-10-31T10:35:01.421Z,8.25
2022-10-31T10:37:37.819Z,11.05
2022-10-31T10:40:16.456Z,9.20
2022-10-31T10:43:10.330Z,8.82
2022-10-31T10:45:59.272Z,6.22
2022-10-31T10:48:45.358Z,9.65
2022-10-31T10:51:46.262Z,5.63
2022-10-31T10:54:56.213Z,12.07
2022-10-31T10:57:51.655Z,7.68
2022-10-31T11:00:24.312Z,15.55
2022-10-31T11:02:53.941Z,10.68
2022-10-31T11:05:35.871Z,8.40
2022-10-31T11:08:07.408Z,7.93
2022-10-31T11:10:49.265Z,9.63
2022-10-31T11:13:25.779Z,7.78
2022-10-31T11:16:01.990Z,9.38
2022-10-31T11:18:35.243Z,6.57
2022-10-31T11:21:08.390Z,10.95
2022-10-31T11:23:37.970Z,10.52
2022-10-31T11:26:18.183Z,6.07
2022-10-31T11:28:57.999Z,14.95
2022-10-31T11:31:29.099Z,14.40
2022-10-31T11:34:03.814Z,9.65
2022-10-31T11:36:39.506Z,13.63
2022-10-31T11:39:23.271Z,7.15
2022-10-31T11:41:55.491Z,6.13
2022-10-31T11:44:33.843Z,9.35
2022-10-31T11:47:14.019Z,7.85
2022-10-31T11:49:50.880Z,9.45
2022-10-31T11:52:27.055Z,7.75
2022-10-31T11:54:58.556Z,10.98
2022-10-31T11:57:34.658Z,9.73
2022-10-31T12:00:07.960Z,12.93
2022-10-31T12:02:36.725Z,9.75
2022-10-31T12:05:22.086Z,9.95
2022-10-31T12:08:01.899Z,10.45
2022-10-31T12:10:49.816Z,8.90
2022-10-31T12:13:35.429Z,9.20
2022-10-31T12:16:16.498Z,9.57
2022-10-31T12:19:03.198Z,12.10
2022-10-31T12:22:04.670Z,10.32
2022-10-31T12:25:08.581Z,12.05
2022-10-31T12:27:57.073Z,8.88
2022-10-31T12:30:40.918Z,10.45
2022-10-31T12:33:32.449Z,10.82
2022-10-31T12:36:41.271Z,19.00
2022-10-31T12:39:31.319Z,11.38
2022-10-31T12:42:13.469Z,14.80
2022-10-31T12:45:18.634Z,14.80
2022-10-31T12:48:21.539Z,16.10
2022-10-31T12:51:02.703Z,7.93
2022-10-31T12:53:48.823Z,12.63
2022-10-31T12:56:35.099Z,10.90
2022-10-31T12:59:17.811Z,9.40
2022-10-31T13:01:53.475Z,22.05
2022-10-31T13:04:37.236Z,8.77
2022-10-31T13:07:13.471Z,5.40
2022-10-31T13:09:54.046Z,8.98
2022-10-31T13:12:25.169Z,10.95
2022-10-31T13:15:01.853Z,10.32
2022-10-31T13:17:37.293Z,9.05
2022-10-31T13:20:24.746Z,8.80
2022-10-31T13:22:59.390Z,7.47
2022-10-31T13:25:34.567Z,7.72
2022-10-31T13:28:11.753Z,10.25
2022-10-31T13:30:44.465Z,14.57
2022-10-31T13:33:20.832Z,12.68
2022-10-31T13:36:03.628Z,15.63
2022-10-31T13:38:42.737Z,12.55
2022-10-31T13:41:32.281Z,13.02
2022-10-31T13:44:08.602Z,11.30
2022-10-31T13:49:39.727Z,11.73
2022-10-31T13:52:25.715Z,9.75
2022-10-31T13:54:57.965Z,10.52
2022-10-31T13:57:37.383Z,8.93
2022-10-31T14:00:25.131Z,23.58
2022-10-31T14:03:00.413Z,9.52
2022-10-31T14:05:33.194Z,9.80
2022-10-31T14:08:06.153Z,8.85
2022-10-31T14:10:39.331Z,7.10
2022-10-31T14:13:16.028Z,15.98
2022-10-31T14:16:15.175Z,7.60
2022-10-31T14:18:52.750Z,9.13
2022-10-31T14:21:37.584Z,10.65
2022-10-31T14:24:17.838Z,9.90
2022-10-31T14:26:58.153Z,15.63
2022-10-31T14:29:29.962Z,13.18
2022-10-31T14:32:08.605Z,15.05
2022-10-31T14:34:42.209Z,9.13
2022-10-31T14:37:57.164Z,9.00
2022-10-31T14:40:38.266Z,17.20
2022-10-31T14:43:30.140Z,13.38
2022-10-31T14:46:07.471Z,17.23
2022-10-31T14:49:00.618Z,9.93
2022-10-31T14:51:42.067Z,12.18
2022-10-31T14:54:18.749Z,8.80
2022-10-31T14:59:30.509Z,10.88
2022-10-31T15:02:04.073Z,12.75
2022-10-31T15:04:34.790Z,28.88
2022-10-31T15:07:14.330Z,27.60
2022-10-31T15:09:44.782Z,11.75
2022-10-31T15:12:29.431Z,6.88
2022-10-31T15:14:59.846Z,7.55
2022-10-31T15:17:29.408Z,10.35
2022-10-31T15:19:59.831Z,9.30
2022-10-31T15:22:34.436Z,6.60
2022-10-31T15:25:03.670Z,6.82
2022-10-31T15:27:34.435Z,19.27
2022-10-31T15:30:02.807Z,5.53
2022-10-31T15:32:32.026Z,10.45
2022-10-31T15:35:00.471Z,9.20
2022-10-31T15:37:30.931Z,6.68
2022-10-31T15:40:17.676Z,13.43
2022-10-31T15:42:52.116Z,10.38
2022-10-31T15:45:24.983Z,4.63
2022-10-31T15:48:00.231Z,9.30
2022-10-31T15:50:34.920Z,12.68
2022-10-31T15:53:19.428Z,13.68
2022-10-31T15:55:55.384Z,11.75
2022-10-31T15:58:25.280Z,9.87
2022-10-31T16:01:04.691Z,6.57
2022-10-31T16:03:36.237Z,11.07
2022-10-31T16:06:07.586Z,5.97
2022-10-31T16:08:39.292Z,8.13
2022-10-31T16:11:25.650Z,16.67
2022-10-31T16:14:04.110Z,15.90
2022-10-31T16:16:36.390Z,12.35
2022-10-31T16:19:08.103Z,8.35
2022-10-31T16:21:39.495Z,13.25
2022-10-31T16:24:26.860Z,12.18
2022-10-31T16:27:06.710Z,9.05
2022-10-31T16:29:41.570Z,11.05
2022-10-31T16:32:33.325Z,8.02
2022-10-31T16:35:28.756Z,12.82
2022-10-31T16:37:57.344Z,12.65
2022-10-31T16:40:27.165Z,14.35
2022-10-31T16:42:55.676Z,137.15
2022-10-31T16:45:26.883Z,26.13
2022-10-31T16:47:55.819Z,15.13
2022-10-31T16:50:26.799Z,13.82
2022-10-31T16:55:49.244Z,10.52
2022-10-31T16:58:24.762Z,17.73
2022-10-31T17:00:57.016Z,16.42
2022-10-31T17:03:25.917Z,13.75
2022-10-31T17:05:56.249Z,10.77
2022-10-31T17:08:34.081Z,12.80
2022-10-31T17:11:04.787Z,8.63
2022-10-31T17:13:35.877Z,7.60
2022-10-31T17:16:05.569Z,10.55
2022-10-31T17:18:34.256Z,10.57
2022-10-31T17:21:06.213Z,11.90
2022-10-31T17:23:37.315Z,8.80
2022-10-31T17:26:09.050Z,10.20
2022-10-31T17:28:37.559Z,10.98
2022-10-31T17:31:05.994Z,10.52
2022-10-31T17:33:34.403Z,13.38
2022-10-31T17:36:05.005Z,11.35
2022-10-31T17:38:33.373Z,11.32
2022-10-31T17:41:11.150Z,12.32
2022-10-31T17:43:40.395Z,12.45
2022-10-31T17:46:09.708Z,14.10
2022-10-31T17:48:39.323Z,19.73
2022-10-31T17:51:08.659Z,9.00
2022-10-31T17:53:37.501Z,23.50
2022-10-31T17:56:10.579Z,15.32
2022-10-31T17:58:40.028Z,17.67
2022-10-31T18:01:14.075Z,15.95
2022-10-31T18:03:43.268Z,16.23
2022-10-31T18:06:14.755Z,22.83
2022-10-31T18:08:43.178Z,9.63
2022-10-31T18:11:19.946Z,95.30
2022-10-31T18:13:48.805Z,22.55
2022-10-31T18:16:19.906Z,16.75
2022-10-31T18:18:53.401Z,17.20
2022-10-31T18:21:22.232Z,16.83
2022-10-31T18:23:55.505Z,9.88
2022-10-31T18:26:26.759Z,11.90
2022-10-31T18:28:55.867Z,16.77
2022-10-31T18:31:25.256Z,20.88
2022-10-31T18:33:55.423Z,21.17
2022-10-31T18:36:25.480Z,17.20
2022-10-31T18:38:54.788Z,12.18
2022-10-31T18:41:25.049Z,12.40
2022-10-31T18:43:56.353Z,10.98
2022-10-31T18:46:25.356Z,14.23
2022-10-31T18:48:53.732Z,13.93
2022-10-31T18:51:22.216Z,10.63
2022-10-31T18:53:58.056Z,18.05
2022-10-31T18:56:31.664Z,11.45
2022-10-31T18:59:02.354Z,10.50
2022-10-31T19:01:32.068Z,15.65
2022-10-31T19:04:00.539Z,21.27
2022-10-31T19:06:30.977Z,11.63
2022-10-31T19:09:02.999Z,12.15
2022-10-31T19:11:35.273Z,14.95
2022-10-31T19:14:04.508Z,18.88
2022-10-31T19:16:33.045Z,19.70
2022-10-31T19:19:01.652Z,12.38
2022-10-31T19:21:31.295Z,9.68
2022-10-31T19:24:01.189Z,10.95
2022-10-31T19:26:30.304Z,13.32
2022-10-31T19:29:00.276Z,10.85
2022-10-31T19:31:28.550Z,18.58
2022-10-31T19:33:56.950Z,20.17
2022-10-31T19:36:26.865Z,14.10
2022-10-31T19:38:55.340Z,14.50
2022-10-31T19:41:26.372Z,12.10
2022-10-31T19:43:56.151Z,13.23
2022-10-31T19:46:48.182Z,9.48
2022-10-31T19:49:15.680Z,12.30
2022-10-31T19:51:44.054Z,18.48
2022-10-31T19:54:13.995Z,10.95
2022-10-31T19:56:42.213Z,13.85
2022-10-31T19:59:10.709Z,14.38
2022-10-31T20:01:40.634Z,16.75
2022-10-31T20:04:09.143Z,10.50
2022-10-31T20:06:41.240Z,15.25
2022-10-31T20:09:13.888Z,18.17
2022-10-31T20:11:44.774Z,14.90
2022-10-31T20:14:16.263Z,12.10
2022-10-31T20:16:46.965Z,15.02
2022-10-31T20:19:16.732Z,14.43
2022-10-31T20:21:45.377Z,14.13
2022-10-31T20:24:14.310Z,15.10
2022-10-31T20:26:43.331Z,20.88
2022-10-31T20:29:16.192Z,16.13
2022-10-31T20:31:48.430Z,18.33
2022-10-31T20:34:17.324Z,23.60
2022-10-31T20:36:46.003Z,29.60
2022-10-31T20:39:14.694Z,17.58
2022-10-31T20:41:43.258Z,15.77
2022-10-31T20:44:11.612Z,16.42
2022-10-31T20:46:40.734Z,12.15
2022-10-31T20:49:11.457Z,12.15
2022-10-31T20:51:40.704Z,15.20
2022-10-31T20:54:11.572Z,14.57
2022-10-31T20:56:40.031Z,11.93
2022-10-31T20:59:08.725Z,13.20
2022-10-31T21:01:38.682Z,12.57
2022-10-31T21:04:09.906Z,18.63
2022-10-31T21:06:42.961Z,9.73
2022-10-31T21:09:13.596Z,8.68
2022-10-31T21:11:42.185Z,14.15
2022-10-31T21:14:13.610Z,10.43
2022-10-31T21:16:41.891Z,12.77
2022-10-31T21:19:10.359Z,10.82
2022-10-31T21:21:40.349Z,10.73
2022-10-31T21:24:13.636Z,14.82
2022-10-31T21:26:45.406Z,9.50
2022-10-31T21:29:16.171Z,10.73
2022-10-31T21:31:45.632Z,9.38
2022-10-31T21:34:14.562Z,11.98
2022-10-31T21:36:44.447Z,13.13
2022-10-31T21:39:12.937Z,14.27
2022-10-31T21:41:41.618Z,8.13
2022-10-31T21:44:10.152Z,6.13
2022-10-31T21:46:40.433Z,15.52
2022-10-31T21:49:08.806Z,8.27
2022-10-31T21:51:38.098Z,9.40
2022-10-31T21:54:27.483Z,6.47
2022-10-31T21:56:56.629Z,8.88
2022-10-31T21:59:25.490Z,7.93
2022-10-31T22:01:56.018Z,5.57
2022-10-31T22:04:24.361Z,7.75
2022-10-31T22:06:52.629Z,10.15
2022-10-31T22:09:23.605Z,12.18
2022-10-31T22:11:52.725Z,11.35
2022-10-31T22:14:20.992Z,11.35
2022-10-31T22:16:49.275Z,11.70
2022-10-31T22:19:23.692Z,8.40
2022-10-31T22:21:51.797Z,17.30
2022-10-31T22:24:21.749Z,13.23
2022-10-31T22:26:49.908Z,11.60
2022-10-31T22:29:20.728Z,10.48
2022-10-31T22:31:55.164Z,12.07
2022-10-31T22:34:26.851Z,10.60
2022-10-31T22:36:56.978Z,11.85
2022-10-31T22:39:26.540Z,16.33
2022-10-31T22:41:54.559Z,13.07
2022-10-31T22:44:22.565Z,9.27
2022-10-31T22:46:50.673Z,15.40
2022-10-31T22:49:18.721Z,12.77
2022-10-31T22:51:46.867Z,20.33
2022-10-31T22:54:17.404Z,12.80
2022-10-31T22:56:47.148Z,14.13
2022-10-31T22:59:17.499Z,13.07
2022-10-31T23:01:46.612Z,18.92
2022-10-31T23:04:15.909Z,10.32
2022-10-31T23:06:44.653Z,17.35
2022-10-31T23:09:17.276Z,13.23
2022-10-31T23:11:47.187Z,18.45
2022-10-31T23:14:19.434Z,20.05
2022-10-31T23:16:50.480Z,12.07
2022-10-31T23:19:21.971Z,19.15
2022-10-31T23:21:56.064Z,23.05
2022-10-31T23:24:28.267Z,15.05
2022-10-31T23:27:08.350Z,18.77
2022-10-31T23:29:43.849Z,19.50
2022-10-31T23:32:18.717Z,18.42
2022-10-31T23:34:48.337Z,14.68
2022-10-31T23:37:17.978Z,23.50
2022-10-31T23:39:46.188Z,16.27
2022-10-31T23:42:16.510Z,15.00
2022-10-31T23:44:44.754Z,15.93
2022-10-31T23:47:14.102Z,14.65
2022-10-31T23:49:42.270Z,15.02
2022-10-31T23:52:10.787Z,25.40
2022-10-31T23:54:39.821Z,16.10
2022-10-31T23:57:07.938Z,12.57
2022-10-31T23:59:37.712Z,16.35
